Johnson Mountain Twp, Maine
Current Conditions -  °F | °C
As of 8:12 AM on Thursday 18 Dec 2014 (Local Time) from CYSC Reporting Station
Light Snow Light Snow  
Wind Chill: 20°   Ceiling: 500
Heat Index: 28°   Visibility: 3mi
Dew Point: 28°   Wind: 8mph
Humidity: 100%   Direction: 280°W
Pressure: 29.73"   Gusts: NA
Location:  45.7142°N, 70.304°W
Report Text: CYSC 181312Z AUTO 28007KT 3SM -SN OVC005 M02/M02 A2973 RMK SLP077
Loading
Personal Weather Stations






























Interactive Weather Map New forecast layout! Learn more

10-Day Weather Forecast

Advertisements
Track Severe Weather on mobile